createdAt,value
2023-03-25T00:04:55.893Z,4.60
2023-03-25T00:10:00.311Z,6.00
2023-03-25T00:15:03.087Z,4.20
2023-03-25T00:20:11.022Z,4.80
2023-03-25T00:25:17.542Z,3.40
2023-03-25T00:30:21.170Z,3.00
2023-03-25T00:35:25.949Z,3.00
2023-03-25T00:40:34.944Z,3.00
2023-03-25T00:45:37.834Z,3.00
2023-03-25T00:50:41.816Z,3.00
2023-03-25T00:55:46.017Z,3.00
2023-03-25T01:00:50.259Z,4.80
2023-03-25T01:05:54.740Z,2.40
2023-03-25T01:10:59.005Z,2.00
2023-03-25T01:16:01.838Z,3.00
2023-03-25T01:21:06.682Z,2.00
2023-03-25T01:26:12.890Z,2.80
2023-03-25T01:31:16.383Z,3.00
2023-03-25T01:36:21.350Z,2.60
2023-03-25T01:41:29.182Z,2.60
2023-03-25T01:46:39.397Z,2.00
2023-03-25T01:51:43.380Z,2.20
2023-03-25T01:56:48.314Z,2.00
2023-03-25T02:01:51.664Z,2.00
2023-03-25T02:06:54.423Z,2.00
2023-03-25T02:11:58.599Z,3.40
2023-03-25T02:17:04.253Z,2.00
2023-03-25T02:22:21.727Z,2.60
2023-03-25T02:27:33.699Z,2.00
2023-03-25T02:32:49.533Z,3.00
2023-03-25T02:38:18.173Z,1.40
2023-03-25T02:43:24.879Z,2.00
2023-03-25T02:48:33.157Z,2.00
2023-03-25T02:53:37.430Z,2.00
2023-03-25T02:58:41.772Z,2.40
2023-03-25T03:03:44.515Z,2.00
2023-03-25T03:08:55.999Z,2.00
2023-03-25T03:14:13.703Z,2.00
2023-03-25T03:19:26.069Z,1.40
2023-03-25T03:24:31.920Z,2.00
2023-03-25T03:29:36.846Z,2.40
2023-03-25T03:34:44.955Z,1.00
2023-03-25T03:39:49.209Z,2.00
2023-03-25T03:44:54.155Z,1.20
2023-03-25T03:49:58.380Z,2.00
2023-03-25T03:55:04.043Z,2.00
2023-03-25T04:00:09.838Z,2.00
2023-03-25T04:05:16.983Z,2.00
2023-03-25T04:10:22.897Z,1.00
2023-03-25T04:15:25.648Z,2.00
2023-03-25T04:20:29.702Z,1.00
2023-03-25T04:25:33.945Z,1.40
2023-03-25T04:30:37.418Z,1.60
2023-03-25T04:35:40.485Z,2.00
2023-03-25T04:40:46.640Z,1.00
2023-03-25T04:45:54.353Z,2.00
2023-03-25T04:50:57.894Z,1.00
2023-03-25T04:56:02.124Z,1.00
2023-03-25T05:01:06.931Z,0.40
2023-03-25T05:06:09.700Z,1.40
2023-03-25T05:11:13.831Z,1.00
2023-03-25T05:16:16.651Z,1.00
2023-03-25T05:21:19.466Z,1.00
2023-03-25T05:26:23.762Z,0.00
2023-03-25T05:31:26.530Z,1.00
2023-03-25T05:36:29.662Z,1.00
2023-03-25T05:41:38.856Z,1.00
2023-03-25T05:46:41.749Z,1.00
2023-03-25T05:51:45.084Z,1.00
2023-03-25T05:56:49.362Z,0.40
2023-03-25T06:01:52.231Z,0.80
2023-03-25T06:06:54.997Z,1.00
2023-03-25T06:11:59.362Z,0.60
2023-03-25T06:17:02.465Z,0.00
2023-03-25T06:22:05.257Z,0.40
2023-03-25T06:27:10.313Z,0.00
2023-03-25T06:32:14.089Z,0.00
2023-03-25T06:37:16.857Z,0.00
2023-03-25T06:42:21.154Z,0.00
2023-03-25T06:47:46.775Z,1.00
2023-03-25T06:52:49.622Z,0.00
2023-03-25T06:57:56.999Z,0.00
2023-03-25T07:02:59.795Z,0.00
2023-03-25T07:08:02.663Z,0.00
2023-03-25T07:13:06.993Z,0.00
2023-03-25T07:18:10.352Z,0.00
2023-03-25T07:23:13.362Z,0.00
2023-03-25T07:28:17.588Z,0.00
2023-03-25T07:33:23.115Z,0.00
2023-03-25T07:38:25.913Z,0.00
2023-03-25T07:43:32.198Z,0.00
2023-03-25T07:48:47.012Z,0.00
2023-03-25T07:53:49.782Z,0.00
2023-03-25T07:58:53.875Z,0.00
2023-03-25T08:03:56.880Z,0.00
2023-03-25T08:08:59.823Z,0.00
2023-03-25T08:14:04.030Z,0.00
2023-03-25T08:19:06.798Z,0.00
2023-03-25T08:24:11.241Z,0.00
2023-03-25T08:29:17.424Z,0.00
2023-03-25T08:34:20.883Z,0.00
2023-03-25T08:39:29.897Z,0.00
2023-03-25T08:44:34.172Z,0.00
2023-03-25T08:49:36.979Z,0.00
2023-03-25T08:54:39.731Z,0.00
2023-03-25T08:59:44.483Z,0.00
2023-03-25T09:04:49.480Z,0.00
2023-03-25T09:09:52.368Z,0.00
2023-03-25T09:14:56.467Z,0.00
2023-03-25T09:19:59.217Z,0.00
2023-03-25T09:25:01.963Z,0.00
2023-03-25T09:30:07.324Z,0.00
2023-03-25T09:35:10.378Z,0.00
2023-03-25T09:40:14.178Z,0.00
2023-03-25T09:45:24.480Z,0.00
2023-03-25T09:50:27.291Z,0.00
2023-03-25T09:55:31.345Z,0.00
2023-03-25T10:00:35.921Z,0.00
2023-03-25T10:05:46.471Z,0.00
2023-03-25T10:10:51.791Z,0.00
2023-03-25T10:15:58.303Z,0.00
2023-03-25T10:21:04.724Z,0.00
2023-03-25T10:26:11.315Z,0.00
2023-03-25T10:31:17.325Z,0.00
2023-03-25T10:36:29.560Z,0.00
2023-03-25T10:41:33.376Z,0.00
2023-03-25T10:46:43.701Z,0.00
2023-03-25T10:51:46.480Z,0.00
2023-03-25T10:56:50.798Z,0.00
2023-03-25T11:01:55.087Z,0.00
2023-03-25T11:06:59.027Z,0.00
2023-03-25T11:12:02.638Z,0.00
2023-03-25T11:17:09.396Z,0.00
2023-03-25T11:22:13.943Z,0.00
2023-03-25T11:27:18.997Z,0.00
2023-03-25T11:32:26.160Z,0.00
2023-03-25T11:37:31.061Z,0.00
2023-03-25T11:42:34.710Z,0.00
2023-03-25T11:47:40.408Z,0.00
2023-03-25T11:52:44.400Z,0.00
2023-03-25T11:57:48.001Z,0.00
2023-03-25T12:02:54.277Z,0.00
2023-03-25T12:08:02.832Z,0.00
2023-03-25T12:13:07.382Z,0.00
2023-03-25T12:18:23.616Z,0.00
2023-03-25T12:23:31.871Z,0.00
2023-03-25T12:28:45.275Z,0.00
2023-03-25T12:33:54.895Z,0.00
2023-03-25T12:39:04.158Z,0.00
2023-03-25T12:44:08.996Z,0.00
2023-03-25T12:49:20.868Z,0.00
2023-03-25T12:54:37.541Z,0.00
2023-03-25T12:59:48.014Z,0.00
2023-03-25T13:05:04.606Z,0.00
2023-03-25T13:10:12.849Z,0.00
2023-03-25T13:15:24.512Z,0.00
2023-03-25T13:20:32.169Z,0.00
2023-03-25T13:25:37.423Z,0.00
2023-03-25T13:30:41.596Z,0.00
2023-03-25T13:35:46.570Z,0.00
2023-03-25T13:40:53.197Z,0.00
2023-03-25T13:45:57.640Z,0.00
2023-03-25T13:51:03.365Z,0.00
2023-03-25T13:56:29.798Z,0.00
2023-03-25T14:02:03.473Z,0.00
2023-03-25T14:07:36.400Z,0.00
2023-03-25T14:12:41.216Z,0.00
2023-03-25T14:17:45.550Z,0.00
2023-03-25T14:22:49.709Z,0.00
2023-03-25T14:27:53.559Z,0.00
2023-03-25T14:32:57.008Z,0.00
2023-03-25T14:38:25.672Z,0.00
2023-03-25T14:43:29.574Z,0.00
2023-03-25T14:48:34.448Z,0.00
2023-03-25T14:53:38.849Z,0.00
2023-03-25T14:58:41.785Z,0.00
2023-03-25T15:03:45.829Z,0.00
2023-03-25T15:08:53.834Z,0.00
2023-03-25T15:13:57.971Z,0.00
2023-03-25T15:19:05.903Z,0.00
2023-03-25T15:24:10.097Z,0.00
2023-03-25T15:29:21.932Z,0.00
2023-03-25T15:34:31.394Z,0.00
2023-03-25T15:39:41.701Z,0.00
2023-03-25T15:45:00.644Z,0.00
2023-03-25T15:50:27.819Z,0.00
2023-03-25T15:55:33.059Z,0.00
2023-03-25T16:00:37.534Z,0.00
2023-03-25T16:05:41.471Z,0.00
2023-03-25T16:10:46.474Z,0.00
2023-03-25T16:15:49.283Z,0.00
2023-03-25T16:20:55.569Z,0.00
2023-03-25T16:25:59.741Z,0.00
2023-03-25T16:31:03.645Z,0.00
2023-03-25T16:36:07.974Z,0.00
2023-03-25T16:41:13.194Z,0.00
2023-03-25T16:46:16.404Z,0.00
2023-03-25T16:51:21.968Z,0.00
2023-03-25T16:56:29.266Z,0.00
2023-03-25T17:01:33.971Z,0.00
2023-03-25T17:06:39.361Z,0.00
2023-03-25T17:11:43.749Z,0.00
2023-03-25T17:16:46.957Z,0.00
2023-03-25T17:22:16.544Z,0.00
2023-03-25T17:27:26.555Z,0.00
2023-03-25T17:32:29.416Z,1.60
2023-03-25T17:37:32.181Z,8.80
2023-03-25T17:42:36.611Z,7.00
2023-03-25T17:47:39.518Z,6.00
2023-03-25T17:52:42.355Z,7.00
2023-03-25T17:57:46.691Z,7.00
2023-03-25T18:02:49.754Z,7.00
2023-03-25T18:07:52.590Z,8.60
2023-03-25T18:12:56.930Z,7.20
2023-03-25T18:17:59.893Z,7.00
2023-03-25T18:23:02.843Z,6.80
2023-03-25T18:28:07.077Z,6.60
2023-03-25T18:33:10.048Z,6.80
2023-03-25T18:38:17.135Z,4.80
2023-03-25T18:43:21.504Z,4.60
2023-03-25T18:48:24.356Z,3.00
2023-03-25T18:53:28.411Z,3.00
2023-03-25T18:58:33.460Z,2.60
2023-03-25T19:03:41.798Z,3.40
2023-03-25T19:08:44.782Z,2.40
2023-03-25T19:13:49.031Z,3.40
2023-03-25T19:18:51.936Z,2.60
2023-03-25T19:23:54.926Z,2.00
2023-03-25T19:28:59.693Z,2.40
2023-03-25T19:34:02.805Z,2.00
2023-03-25T19:39:06.709Z,2.00
2023-03-25T19:44:11.052Z,2.00
2023-03-25T19:49:13.815Z,2.00
2023-03-25T19:54:16.643Z,1.00
2023-03-25T19:59:20.878Z,1.80
2023-03-25T20:04:23.699Z,1.60
2023-03-25T20:09:27.886Z,1.00
2023-03-25T20:14:32.306Z,1.00
2023-03-25T20:19:35.058Z,1.00
2023-03-25T20:24:38.277Z,1.00
2023-03-25T20:29:42.677Z,0.40
2023-03-25T20:34:45.538Z,1.40
2023-03-25T20:39:48.999Z,0.40
2023-03-25T20:44:53.278Z,0.60
2023-03-25T20:49:56.285Z,0.60
2023-03-25T20:54:59.232Z,1.00
2023-03-25T21:00:04.548Z,1.00
2023-03-25T21:05:08.293Z,1.00
2023-03-25T21:10:11.487Z,1.00
2023-03-25T21:15:15.990Z,1.00
2023-03-25T21:20:21.858Z,1.20
2023-03-25T21:25:25.105Z,1.00
2023-03-25T21:30:29.276Z,1.00
2023-03-25T21:35:32.899Z,1.00
2023-03-25T21:40:39.882Z,1.00
2023-03-25T21:45:44.416Z,0.20
2023-03-25T21:50:47.439Z,1.00
2023-03-25T21:55:50.370Z,0.60
2023-03-25T22:00:57.832Z,1.00
2023-03-25T22:06:03.130Z,0.00
2023-03-25T22:11:08.222Z,0.00
2023-03-25T22:16:13.918Z,0.00
2023-03-25T22:21:17.611Z,0.00
2023-03-25T22:26:20.399Z,0.00
2023-03-25T22:31:26.273Z,0.00
2023-03-25T22:36:29.307Z,0.20
2023-03-25T22:41:32.246Z,0.00
2023-03-25T22:46:36.509Z,0.00
2023-03-25T22:51:39.400Z,0.00
2023-03-25T22:56:43.508Z,0.60
2023-03-25T23:01:47.688Z,0.00
2023-03-25T23:07:00.868Z,0.00
2023-03-25T23:12:11.046Z,0.00
2023-03-25T23:17:15.445Z,0.00
2023-03-25T23:22:18.198Z,0.00
2023-03-25T23:27:21.003Z,0.00
2023-03-25T23:32:25.146Z,1.00
2023-03-25T23:37:28.288Z,0.00
2023-03-25T23:42:34.876Z,0.00
2023-03-25T23:47:40.102Z,0.00
2023-03-25T23:52:42.905Z,0.20
2023-03-25T23:57:45.705Z,0.00
